<?xml version='1.0' encoding='UTF-8'?><gpx version="1.1" creator="JPX - https://github.com/jenetics/jpx" xmlns="http://www.topografix.com/GPX/1/1"><trk><trkseg><trkpt lat="46.0763468785507" lon="12.597941826790198"><ele>163.0</ele><time>2026-04-25T07:52:36Z</time></trkpt><trkpt lat="46.076419188696704" lon="12.597961582446564"><ele>163.0</ele><time>2026-04-25T07:52:43Z</time></trkpt><trkpt lat="46.07648334685424" lon="12.597974394280541"><ele>163.0</ele><time>2026-04-25T07:52:49Z</time></trkpt><trkpt lat="46.07654056320691" lon="12.598016780915014"><ele>163.0</ele><time>2026-04-25T07:52:54Z</time></trkpt><trkpt lat="46.07661721649262" lon="12.598023733453022"><ele>163.0</ele><time>2026-04-25T07:53:01Z</time></trkpt><trkpt lat="46.07667786005054" lon="12.59799029113169"><ele>163.0</ele><time>2026-04-25T07:53:07Z</time></trkpt><trkpt lat="46.07669085927306" lon="12.597882094703737"><ele>163.0</ele><time>2026-04-25T07:53:14Z</time></trkpt><trkpt lat="46.076709114170626" lon="12.597792538661064"><ele>163.2857142857143</ele><time>2026-04-25T07:53:19Z</time></trkpt><trkpt lat="46.07672687191191" lon="12.59768955256697"><ele>163.57142857142856</ele><time>2026-04-25T07:53:26Z</time></trkpt><trkpt lat="46.076789549631734" lon="12.597647297105443"><ele>163.85714285714286</ele><time>2026-04-25T07:53:32Z</time></trkpt><trkpt lat="46.07686239935399" lon="12.597667563918352"><ele>164.14285714285717</ele><time>2026-04-25T07:53:38Z</time></trkpt><trkpt lat="46.07692741236103" lon="12.597684907848972"><ele>164.42857142857144</ele><time>2026-04-25T07:53:43Z</time></trkpt><trkpt lat="46.076995771722835" lon="12.597702283973298"><ele>164.71428571428572</ele><time>2026-04-25T07:53:49Z</time></trkpt><trkpt lat="46.07707219342763" lon="12.59771690119182"><ele>165.0</ele><time>2026-04-25T07:53:56Z</time></trkpt><trkpt lat="46.07713472280188" lon="12.597670601603978"><ele>165.00000000000003</ele><time>2026-04-25T07:54:03Z</time></trkpt><trkpt lat="46.07718222458619" lon="12.597609527704401"><ele>165.0</ele><time>2026-04-25T07:54:08Z</time></trkpt><trkpt lat="46.07722162445114" lon="12.59753745054973"><ele>165.0</ele><time>2026-04-25T07:54:13Z</time></trkpt><trkpt lat="46.07725567874846" lon="12.597449397795268"><ele>165.0</ele><time>2026-04-25T07:54:20Z</time></trkpt><trkpt lat="46.07729054780233" lon="12.597364976643666"><ele>165.0</ele><time>2026-04-25T07:54:26Z</time></trkpt><trkpt lat="46.07733032652521" lon="12.597277926814538"><ele>165.00000000000003</ele><time>2026-04-25T07:54:32.999Z</time></trkpt><trkpt lat="46.07739191480459" lon="12.59721888369587"><ele>165.0</ele><time>2026-04-25T07:54:39.999Z</time></trkpt><trkpt lat="46.07745552740217" lon="12.597223850546873"><ele>165.00000000000003</ele><time>2026-04-25T07:54:46.999Z</time></trkpt><trkpt lat="46.077511790116525" lon="12.597269849797817"><ele>165.0</ele><time>2026-04-25T07:54:53Z</time></trkpt><trkpt lat="46.077525263135605" lon="12.597359156646167"><ele>165.0</ele><time>2026-04-25T07:54:58Z</time></trkpt><trkpt lat="46.07750721033209" lon="12.597452852104864"><ele>165.0</ele><time>2026-04-25T07:55:05Z</time></trkpt><trkpt lat="46.077462085631424" lon="12.597523344473226"><ele>165.0</ele><time>2026-04-25T07:55:11Z</time></trkpt><trkpt lat="46.07740706344647" lon="12.597593922762545"><ele>165.00000000000003</ele><time>2026-04-25T07:55:17Z</time></trkpt><trkpt lat="46.07735981688071" lon="12.597664466090988"><ele>165.0</ele><time>2026-04-25T07:55:22Z</time></trkpt><trkpt lat="46.077314421753094" lon="12.597745369568415"><ele>165.00000000000003</ele><time>2026-04-25T07:55:28Z</time></trkpt><trkpt lat="46.07726095475781" lon="12.597798148553565"><ele>165.0</ele><time>2026-04-25T07:55:34Z</time></trkpt><trkpt lat="46.077201572145256" lon="12.59782928009957"><ele>165.0</ele><time>2026-04-25T07:55:41Z</time></trkpt><trkpt lat="46.07713443059029" lon="12.597830535479034"><ele>165.0</ele><time>2026-04-25T07:55:47Z</time></trkpt><trkpt lat="46.07705640951348" lon="12.597818790630141"><ele>165.0</ele><time>2026-04-25T07:55:54Z</time></trkpt><trkpt lat="46.07698344764955" lon="12.59781008932019"><ele>165.00000000000003</ele><time>2026-04-25T07:56:00Z</time></trkpt><trkpt lat="46.07691722333861" lon="12.597817013269296"><ele>165.0</ele><time>2026-04-25T07:56:05Z</time></trkpt><trkpt lat="46.07684675941646" lon="12.597851130962589"><ele>164.85714285714286</ele><time>2026-04-25T07:56:11Z</time></trkpt><trkpt lat="46.07681253808209" lon="12.597940055090016"><ele>164.71428571428572</ele><time>2026-04-25T07:56:17Z</time></trkpt><trkpt lat="46.07684038445309" lon="12.598045087017956"><ele>164.57142857142856</ele><time>2026-04-25T07:56:22Z</time></trkpt><trkpt lat="46.07691580721548" lon="12.598076395079206"><ele>164.42857142857144</ele><time>2026-04-25T07:56:28Z</time></trkpt><trkpt lat="46.076979660016306" lon="12.598091098743549"><ele>164.28571428571428</ele><time>2026-04-25T07:56:34Z</time></trkpt><trkpt lat="46.07704365368865" lon="12.598109899530572"><ele>164.14285714285714</ele><time>2026-04-25T07:56:40Z</time></trkpt><trkpt lat="46.07712166112061" lon="12.598120098787138"><ele>164.0</ele><time>2026-04-25T07:56:47Z</time></trkpt><trkpt lat="46.07719618542362" lon="12.598150714217986"><ele>163.99999999999997</ele><time>2026-04-25T07:56:54Z</time></trkpt><trkpt lat="46.077249996091915" lon="12.598201598755805"><ele>164.0</ele><time>2026-04-25T07:57:00Z</time></trkpt><trkpt lat="46.07731191155827" lon="12.598231693181578"><ele>164.0</ele><time>2026-04-25T07:57:07Z</time></trkpt><trkpt lat="46.07738003358264" lon="12.598275523841748"><ele>164.0</ele><time>2026-04-25T07:57:13Z</time></trkpt><trkpt lat="46.077447319206996" lon="12.598301277255416"><ele>164.0</ele><time>2026-04-25T07:57:19Z</time></trkpt><trkpt lat="46.07751761274185" lon="12.598329889796169"><ele>163.99999999999997</ele><time>2026-04-25T07:57:25Z</time></trkpt><trkpt lat="46.0775812196899" lon="12.598360752693184"><ele>164.0</ele><time>2026-04-25T07:57:31Z</time></trkpt><trkpt lat="46.077653186582644" lon="12.598369733585296"><ele>164.28571428571428</ele><time>2026-04-25T07:57:38Z</time></trkpt><trkpt lat="46.07771860395522" lon="12.59838316243832"><ele>164.57142857142856</ele><time>2026-04-25T07:57:45Z</time></trkpt><trkpt lat="46.07779306421518" lon="12.598378136106003"><ele>164.85714285714283</ele><time>2026-04-25T07:57:52Z</time></trkpt><trkpt lat="46.077835997407746" lon="12.598306717789598"><ele>165.14285714285714</ele><time>2026-04-25T07:57:57Z</time></trkpt><trkpt lat="46.07780824628729" lon="12.598219779733313"><ele>165.42857142857144</ele><time>2026-04-25T07:58:02Z</time></trkpt><trkpt lat="46.07774334947693" lon="12.598184188206261"><ele>165.7142857142857</ele><time>2026-04-25T07:58:08Z</time></trkpt><trkpt lat="46.07767698063902" lon="12.598160153360853"><ele>166.0</ele><time>2026-04-25T07:58:14Z</time></trkpt><trkpt lat="46.077616503177005" lon="12.598127661060527"><ele>166.0</ele><time>2026-04-25T07:58:19Z</time></trkpt><trkpt lat="46.07754997196113" lon="12.598098215161205"><ele>166.0</ele><time>2026-04-25T07:58:25Z</time></trkpt><trkpt lat="46.07747613781265" lon="12.598075848531733"><ele>166.0</ele><time>2026-04-25T07:58:31Z</time></trkpt><trkpt lat="46.077405851604794" lon="12.598054247659489"><ele>166.0</ele><time>2026-04-25T07:58:38Z</time></trkpt><trkpt lat="46.077350798296386" lon="12.597986196521486"><ele>166.0</ele><time>2026-04-25T07:58:44Z</time></trkpt><trkpt lat="46.0773808048805" lon="12.597880512754323"><ele>166.0</ele><time>2026-04-25T07:58:54Z</time></trkpt><trkpt lat="46.07744200698862" lon="12.597919975926994"><ele>166.0</ele><time>2026-04-25T07:59:05Z</time></trkpt><trkpt lat="46.07751820576289" lon="12.597913495114438"><ele>166.0</ele><time>2026-04-25T07:59:11Z</time></trkpt><trkpt lat="46.07758627821001" lon="12.59791960139127"><ele>166.0</ele><time>2026-04-25T07:59:18Z</time></trkpt><trkpt lat="46.07765433397779" lon="12.597936381010681"><ele>166.0</ele><time>2026-04-25T07:59:24Z</time></trkpt><trkpt lat="46.077729526420654" lon="12.597957962683473"><ele>166.0</ele><time>2026-04-25T07:59:31Z</time></trkpt><trkpt lat="46.077794027881744" lon="12.597993241531388"><ele>166.0</ele><time>2026-04-25T07:59:37Z</time></trkpt><trkpt lat="46.07783959933569" lon="12.598079469285777"><ele>166.0</ele><time>2026-04-25T07:59:44Z</time></trkpt><trkpt lat="46.077871333228124" lon="12.59816745375808"><ele>166.0</ele><time>2026-04-25T07:59:49Z</time></trkpt><trkpt lat="46.077898542404576" lon="12.598250096280188"><ele>166.0</ele><time>2026-04-25T07:59:54Z</time></trkpt><trkpt lat="46.07793772794676" lon="12.598330621123896"><ele>166.0</ele><time>2026-04-25T08:00:00Z</time></trkpt><trkpt lat="46.07799213199314" lon="12.598395349810296"><ele>166.0</ele><time>2026-04-25T08:00:06Z</time></trkpt><trkpt lat="46.078044699342875" lon="12.59846282967044"><ele>166.0</ele><time>2026-04-25T08:00:12Z</time></trkpt><trkpt lat="46.078113624103196" lon="12.598495739561674"><ele>166.0</ele><time>2026-04-25T08:00:18Z</time></trkpt><trkpt lat="46.07817921423907" lon="12.598528690030635"><ele>166.0</ele><time>2026-04-25T08:00:25Z</time></trkpt><trkpt lat="46.07824439486325" lon="12.598514727615234"><ele>166.0</ele><time>2026-04-25T08:00:34Z</time></trkpt><trkpt lat="46.07830912321317" lon="12.598506874192836"><ele>166.28571428571428</ele><time>2026-04-25T08:00:40Z</time></trkpt><trkpt lat="46.07836767989143" lon="12.598471954677567"><ele>166.57142857142858</ele><time>2026-04-25T08:00:46Z</time></trkpt><trkpt lat="46.07843186977773" lon="12.598437541356994"><ele>166.85714285714286</ele><time>2026-04-25T08:00:52Z</time></trkpt><trkpt lat="46.07849649282511" lon="12.598409486831637"><ele>167.14285714285714</ele><time>2026-04-25T08:00:58Z</time></trkpt><trkpt lat="46.07854610300766" lon="12.598344224610488"><ele>167.42857142857144</ele><time>2026-04-25T08:01:04Z</time></trkpt><trkpt lat="46.07856510313182" lon="12.598253253253336"><ele>167.71428571428572</ele><time>2026-04-25T08:01:10Z</time></trkpt><trkpt lat="46.078581810134644" lon="12.598159115529437"><ele>168.0</ele><time>2026-04-25T08:01:16Z</time></trkpt><trkpt lat="46.07858729373894" lon="12.598052127668174"><ele>168.0</ele><time>2026-04-25T08:01:23Z</time></trkpt><trkpt lat="46.07860001726409" lon="12.597962881896228"><ele>168.0</ele><time>2026-04-25T08:01:29Z</time></trkpt><trkpt lat="46.07860751682417" lon="12.597872671325288"><ele>168.0</ele><time>2026-04-25T08:01:34Z</time></trkpt><trkpt lat="46.07862265796764" lon="12.59776827558092"><ele>168.0</ele><time>2026-04-25T08:01:40Z</time></trkpt><trkpt lat="46.0786405747468" lon="12.59767763539162"><ele>168.0</ele><time>2026-04-25T08:01:46Z</time></trkpt><trkpt lat="46.078670018803734" lon="12.597547730703708"><ele>168.0</ele><time>2026-04-25T08:01:53Z</time></trkpt><trkpt lat="46.07868876687187" lon="12.597437989649972"><ele>168.0</ele><time>2026-04-25T08:02:01Z</time></trkpt><trkpt lat="46.07866337183095" lon="12.5973542363462"><ele>168.0</ele><time>2026-04-25T08:02:08Z</time></trkpt><trkpt lat="46.07860344693112" lon="12.597321238043788"><ele>168.0</ele><time>2026-04-25T08:02:14Z</time></trkpt><trkpt lat="46.07854373703726" lon="12.59737187771102"><ele>168.0</ele><time>2026-04-25T08:02:22Z</time></trkpt><trkpt lat="46.078516215931245" lon="12.597464083989104"><ele>168.0</ele><time>2026-04-25T08:02:31Z</time></trkpt><trkpt lat="46.078512808268655" lon="12.59755983628521"><ele>168.0</ele><time>2026-04-25T08:02:39Z</time></trkpt><trkpt lat="46.07849566682738" lon="12.597650446850105"><ele>168.0</ele><time>2026-04-25T08:02:44.001Z</time></trkpt><trkpt lat="46.07848614001415" lon="12.597753738173605"><ele>168.0</ele><time>2026-04-25T08:02:51.001Z</time></trkpt><trkpt lat="46.07848619318318" lon="12.597845146672771"><ele>168.0</ele><time>2026-04-25T08:02:57Z</time></trkpt><trkpt lat="46.078469470045015" lon="12.59793395115084"><ele>168.0</ele><time>2026-04-25T08:03:03Z</time></trkpt><trkpt lat="46.0784489252512" lon="12.598033381780501"><ele>168.0</ele><time>2026-04-25T08:03:09Z</time></trkpt><trkpt lat="46.0784176974981" lon="12.598128027714422"><ele>168.0</ele><time>2026-04-25T08:03:16Z</time></trkpt><trkpt lat="46.078388885940456" lon="12.598209810986623"><ele>168.0</ele><time>2026-04-25T08:03:22Z</time></trkpt><trkpt lat="46.07832766068348" lon="12.598255526334706"><ele>168.0</ele><time>2026-04-25T08:03:29Z</time></trkpt><trkpt lat="46.078286739535315" lon="12.598185946707195"><ele>168.0</ele><time>2026-04-25T08:03:36Z</time></trkpt><trkpt lat="46.07828457222676" lon="12.59809085828445"><ele>168.0</ele><time>2026-04-25T08:03:42Z</time></trkpt><trkpt lat="46.078292920796045" lon="12.597999413115682"><ele>168.0</ele><time>2026-04-25T08:03:49Z</time></trkpt><trkpt lat="46.07830168623622" lon="12.597905153497903"><ele>168.0</ele><time>2026-04-25T08:03:56Z</time></trkpt><trkpt lat="46.07831942424192" lon="12.597805523631822"><ele>168.0</ele><time>2026-04-25T08:04:03Z</time></trkpt><trkpt lat="46.078326953738916" lon="12.597708561686144"><ele>168.0</ele><time>2026-04-25T08:04:10Z</time></trkpt><trkpt lat="46.07833941769951" lon="12.597607123981902"><ele>168.0</ele><time>2026-04-25T08:04:17Z</time></trkpt><trkpt lat="46.07835277864628" lon="12.597508370778"><ele>168.0</ele><time>2026-04-25T08:04:24Z</time></trkpt><trkpt lat="46.07837021081346" lon="12.597412365990952"><ele>167.85714285714286</ele><time>2026-04-25T08:04:31Z</time></trkpt><trkpt lat="46.07839677524272" lon="12.59732694207833"><ele>167.71428571428572</ele><time>2026-04-25T08:04:37Z</time></trkpt><trkpt lat="46.07842795388317" lon="12.597234842177246"><ele>167.57142857142856</ele><time>2026-04-25T08:04:43Z</time></trkpt><trkpt lat="46.078470725154624" lon="12.597160275218618"><ele>167.42857142857144</ele><time>2026-04-25T08:04:49.001Z</time></trkpt><trkpt lat="46.07853263536768" lon="12.59711612809709"><ele>167.28571428571428</ele><time>2026-04-25T08:04:56.001Z</time></trkpt><trkpt lat="46.07860216773647" lon="12.59712255893603"><ele>167.14285714285714</ele><time>2026-04-25T08:05:03Z</time></trkpt><trkpt lat="46.07867097476026" lon="12.597150149581712"><ele>167.0</ele><time>2026-04-25T08:05:10Z</time></trkpt><trkpt lat="46.07874305572744" lon="12.597204476090644"><ele>167.0</ele><time>2026-04-25T08:05:17Z</time></trkpt><trkpt lat="46.07878317833943" lon="12.597279384563636"><ele>167.0</ele><time>2026-04-25T08:05:25Z</time></trkpt><trkpt lat="46.078796616411616" lon="12.597368669996294"><ele>167.0</ele><time>2026-04-25T08:05:31Z</time></trkpt><trkpt lat="46.07878802138729" lon="12.5974614635739"><ele>167.0</ele><time>2026-04-25T08:05:38Z</time></trkpt><trkpt lat="46.078782274327565" lon="12.597561516140328"><ele>167.0</ele><time>2026-04-25T08:05:44Z</time></trkpt><trkpt lat="46.07877678908378" lon="12.597671092911906"><ele>167.0</ele><time>2026-04-25T08:05:51Z</time></trkpt><trkpt lat="46.07877133756084" lon="12.597763402164546"><ele>167.0</ele><time>2026-04-25T08:05:58Z</time></trkpt><trkpt lat="46.07876143198299" lon="12.59786127771195"><ele>167.14285714285714</ele><time>2026-04-25T08:06:05Z</time></trkpt><trkpt lat="46.07874661951793" lon="12.59796326170125"><ele>167.28571428571428</ele><time>2026-04-25T08:06:13Z</time></trkpt><trkpt lat="46.078774763947436" lon="12.598050393260397"><ele>167.42857142857144</ele><time>2026-04-25T08:06:31Z</time></trkpt><trkpt lat="46.07883149250513" lon="12.59809689525584"><ele>167.57142857142856</ele><time>2026-04-25T08:06:36Z</time></trkpt><trkpt lat="46.078901106583146" lon="12.598073246049362"><ele>167.71428571428572</ele><time>2026-04-25T08:06:43Z</time></trkpt><trkpt lat="46.07895680919551" lon="12.598017626159994"><ele>167.85714285714286</ele><time>2026-04-25T08:06:49.001Z</time></trkpt><trkpt lat="46.07900683985671" lon="12.597956439769359"><ele>168.0</ele><time>2026-04-25T08:06:55.001Z</time></trkpt><trkpt lat="46.07905615404252" lon="12.597897839525054"><ele>167.85714285714286</ele><time>2026-04-25T08:07:01.001Z</time></trkpt><trkpt lat="46.079102505913816" lon="12.597826276047561"><ele>167.71428571428572</ele><time>2026-04-25T08:07:07.001Z</time></trkpt><trkpt lat="46.07914139552581" lon="12.597749643838988"><ele>167.57142857142856</ele><time>2026-04-25T08:07:14Z</time></trkpt><trkpt lat="46.07919958249727" lon="12.597688883129697"><ele>167.42857142857144</ele><time>2026-04-25T08:07:19Z</time></trkpt><trkpt lat="46.07924812484838" lon="12.597628821749867"><ele>167.28571428571428</ele><time>2026-04-25T08:07:25Z</time></trkpt><trkpt lat="46.07927577100986" lon="12.597533936780176"><ele>167.14285714285714</ele><time>2026-04-25T08:07:32Z</time></trkpt><trkpt lat="46.07925978028503" lon="12.597437235515706"><ele>167.0</ele><time>2026-04-25T08:07:39Z</time></trkpt><trkpt lat="46.07919284593869" lon="12.597392648537868"><ele>167.0</ele><time>2026-04-25T08:07:45Z</time></trkpt><trkpt lat="46.07913176142251" lon="12.597449907268649"><ele>167.0</ele><time>2026-04-25T08:07:52Z</time></trkpt><trkpt lat="46.07910831247989" lon="12.597550613431903"><ele>167.0</ele><time>2026-04-25T08:07:58Z</time></trkpt><trkpt lat="46.079056388287995" lon="12.59762044014206"><ele>167.0</ele><time>2026-04-25T08:08:05Z</time></trkpt><trkpt lat="46.07899666041803" lon="12.597568516847016"><ele>167.0</ele><time>2026-04-25T08:08:13Z</time></trkpt><trkpt lat="46.07897718766273" lon="12.59747888943198"><ele>167.0</ele><time>2026-04-25T08:08:20Z</time></trkpt><trkpt lat="46.07895169309603" lon="12.597383108321562"><ele>167.0</ele><time>2026-04-25T08:08:27Z</time></trkpt><trkpt lat="46.07893321521212" lon="12.597290869973492"><ele>167.0</ele><time>2026-04-25T08:08:33Z</time></trkpt><trkpt lat="46.07890396963927" lon="12.597199897801598"><ele>167.0</ele><time>2026-04-25T08:08:40Z</time></trkpt><trkpt lat="46.07886085155165" lon="12.597128175189349"><ele>167.0</ele><time>2026-04-25T08:08:47Z</time></trkpt><trkpt lat="46.07882127429603" lon="12.597055339774025"><ele>167.0</ele><time>2026-04-25T08:08:53Z</time></trkpt><trkpt lat="46.07877576766946" lon="12.596983540779771"><ele>167.0</ele><time>2026-04-25T08:09:00.001Z</time></trkpt><trkpt lat="46.0787196185386" lon="12.596934084184381"><ele>167.0</ele><time>2026-04-25T08:09:07.001Z</time></trkpt><trkpt lat="46.07864783194606" lon="12.596891128292588"><ele>167.0</ele><time>2026-04-25T08:09:13.999Z</time></trkpt><trkpt lat="46.07858165403349" lon="12.596856211982942"><ele>167.0</ele><time>2026-04-25T08:09:20.999Z</time></trkpt><trkpt lat="46.078519541319636" lon="12.596835482828272"><ele>167.0</ele><time>2026-04-25T08:09:26.999Z</time></trkpt><trkpt lat="46.07845520756499" lon="12.596847920710882"><ele>167.0</ele><time>2026-04-25T08:09:32.999Z</time></trkpt><trkpt lat="46.07838777804729" lon="12.5968843779772"><ele>167.0</ele><time>2026-04-25T08:09:40Z</time></trkpt><trkpt lat="46.07833904452929" lon="12.596946949693733"><ele>167.0</ele><time>2026-04-25T08:09:46Z</time></trkpt><trkpt lat="46.07830334937086" lon="12.59703210502819"><ele>167.0</ele><time>2026-04-25T08:09:53Z</time></trkpt><trkpt lat="46.078285616309174" lon="12.597128483935464"><ele>167.0</ele><time>2026-04-25T08:10:00Z</time></trkpt><trkpt lat="46.07826891444307" lon="12.59722163769308"><ele>166.85714285714286</ele><time>2026-04-25T08:10:06Z</time></trkpt><trkpt lat="46.07824934655971" lon="12.59731321144688"><ele>166.71428571428572</ele><time>2026-04-25T08:10:12Z</time></trkpt><trkpt lat="46.078231047053535" lon="12.597412030877503"><ele>166.57142857142856</ele><time>2026-04-25T08:10:19Z</time></trkpt><trkpt lat="46.07821065143709" lon="12.597500256000762"><ele>166.42857142857144</ele><time>2026-04-25T08:10:26Z</time></trkpt><trkpt lat="46.07819540644615" lon="12.597591353033256"><ele>166.2857142857143</ele><time>2026-04-25T08:10:32Z</time></trkpt><trkpt lat="46.078177071701354" lon="12.597688384044533"><ele>166.14285714285714</ele><time>2026-04-25T08:10:38Z</time></trkpt><trkpt lat="46.07815776121948" lon="12.597779765656343"><ele>166.0</ele><time>2026-04-25T08:10:44Z</time></trkpt><trkpt lat="46.07813454513271" lon="12.59787765810758"><ele>166.0</ele><time>2026-04-25T08:10:54Z</time></trkpt><trkpt lat="46.0780969848825" lon="12.59795900396394"><ele>166.0</ele><time>2026-04-25T08:11:01Z</time></trkpt><trkpt lat="46.07802310525829" lon="12.597961609981116"><ele>166.0</ele><time>2026-04-25T08:11:54Z</time></trkpt><trkpt lat="46.07798131054757" lon="12.597873499449182"><ele>166.0</ele><time>2026-04-25T08:12:01Z</time></trkpt><trkpt lat="46.07796307610832" lon="12.597782816043814"><ele>166.0</ele><time>2026-04-25T08:12:07Z</time></trkpt><trkpt lat="46.07794709527587" lon="12.597681173019657"><ele>166.0</ele><time>2026-04-25T08:12:13Z</time></trkpt><trkpt lat="46.077937913715886" lon="12.597589461737165"><ele>166.0</ele><time>2026-04-25T08:12:19Z</time></trkpt><trkpt lat="46.077944884235094" lon="12.597495572264007"><ele>165.85714285714286</ele><time>2026-04-25T08:12:25Z</time></trkpt><trkpt lat="46.07796173528168" lon="12.597391645489681"><ele>165.71428571428572</ele><time>2026-04-25T08:12:32Z</time></trkpt><trkpt lat="46.07797872479851" lon="12.597304064015837"><ele>165.57142857142858</ele><time>2026-04-25T08:12:38Z</time></trkpt><trkpt lat="46.07800974141015" lon="12.597210016290168"><ele>165.42857142857144</ele><time>2026-04-25T08:12:45.001Z</time></trkpt><trkpt lat="46.07802880043488" lon="12.5971136710466"><ele>165.28571428571428</ele><time>2026-04-25T08:12:53.001Z</time></trkpt><trkpt lat="46.07804607248441" lon="12.597023666121272"><ele>165.14285714285717</ele><time>2026-04-25T08:12:59.001Z</time></trkpt><trkpt lat="46.07806807078564" lon="12.59693036588138"><ele>165.0</ele><time>2026-04-25T08:13:05.001Z</time></trkpt><trkpt lat="46.07808245529907" lon="12.59684140275915"><ele>165.00000000000003</ele><time>2026-04-25T08:13:10.001Z</time></trkpt><trkpt lat="46.07809962147782" lon="12.596748745738218"><ele>165.0</ele><time>2026-04-25T08:13:16.001Z</time></trkpt><trkpt lat="46.078125285082564" lon="12.596653655214634"><ele>165.0</ele><time>2026-04-25T08:13:23.001Z</time></trkpt><trkpt lat="46.078158733060086" lon="12.596560582716984"><ele>165.0</ele><time>2026-04-25T08:13:29Z</time></trkpt><trkpt lat="46.07818116250525" lon="12.596472570208766"><ele>165.0</ele><time>2026-04-25T08:13:35Z</time></trkpt><trkpt lat="46.07822042374277" lon="12.596392646474222"><ele>165.00000000000003</ele><time>2026-04-25T08:13:41Z</time></trkpt><trkpt lat="46.07827910426225" lon="12.596350405696446"><ele>165.0</ele><time>2026-04-25T08:13:47Z</time></trkpt><trkpt lat="46.07834343615754" lon="12.596342025175328"><ele>165.42857142857144</ele><time>2026-04-25T08:13:53Z</time></trkpt><trkpt lat="46.07841024803806" lon="12.596372217048483"><ele>165.85714285714286</ele><time>2026-04-25T08:13:59Z</time></trkpt><trkpt lat="46.078472246713204" lon="12.596412280657324"><ele>166.28571428571428</ele><time>2026-04-25T08:14:04Z</time></trkpt><trkpt lat="46.078529487858276" lon="12.596464545760341"><ele>166.71428571428572</ele><time>2026-04-25T08:14:10Z</time></trkpt><trkpt lat="46.07857902315787" lon="12.596537556106705"><ele>167.14285714285714</ele><time>2026-04-25T08:14:16Z</time></trkpt><trkpt lat="46.07863071741189" lon="12.596603580186477"><ele>167.57142857142858</ele><time>2026-04-25T08:14:22.001Z</time></trkpt><trkpt lat="46.078687933230626" lon="12.596674804594295"><ele>168.0</ele><time>2026-04-25T08:14:28.001Z</time></trkpt><trkpt lat="46.07874044479079" lon="12.596737759507436"><ele>168.0</ele><time>2026-04-25T08:14:34.001Z</time></trkpt><trkpt lat="46.07880035397601" lon="12.596787974726716"><ele>168.0</ele><time>2026-04-25T08:14:41.001Z</time></trkpt><trkpt lat="46.07885765602722" lon="12.596839655631625"><ele>168.0</ele><time>2026-04-25T08:14:47.001Z</time></trkpt><trkpt lat="46.07891555456417" lon="12.596890547444854"><ele>168.0</ele><time>2026-04-25T08:14:54.001Z</time></trkpt><trkpt lat="46.07897464728224" lon="12.596935547146758"><ele>168.0</ele><time>2026-04-25T08:15:00.001Z</time></trkpt><trkpt lat="46.07902662146108" lon="12.597006401614575"><ele>168.0</ele><time>2026-04-25T08:15:06.001Z</time></trkpt><trkpt lat="46.07909088626824" lon="12.597052118478521"><ele>168.0</ele><time>2026-04-25T08:15:13.001Z</time></trkpt><trkpt lat="46.079144932322606" lon="12.59711229430001"><ele>167.85714285714286</ele><time>2026-04-25T08:15:18.001Z</time></trkpt><trkpt lat="46.079205962053585" lon="12.597158403692704"><ele>167.71428571428572</ele><time>2026-04-25T08:15:25.001Z</time></trkpt><trkpt lat="46.079260783435465" lon="12.597211187322106"><ele>167.57142857142856</ele><time>2026-04-25T08:15:30.001Z</time></trkpt><trkpt lat="46.079331830805735" lon="12.597204082154411"><ele>167.42857142857144</ele><time>2026-04-25T08:15:36Z</time></trkpt><trkpt lat="46.079394338122725" lon="12.597187111244104"><ele>167.28571428571428</ele><time>2026-04-25T08:15:41Z</time></trkpt><trkpt lat="46.0794394084948" lon="12.597108781331912"><ele>167.14285714285714</ele><time>2026-04-25T08:15:48Z</time></trkpt><trkpt lat="46.079464369780794" lon="12.59702318782507"><ele>167.0</ele><time>2026-04-25T08:15:54Z</time></trkpt><trkpt lat="46.0794691224871" lon="12.596929643816654"><ele>167.0</ele><time>2026-04-25T08:15:59Z</time></trkpt><trkpt lat="46.079456633089436" lon="12.596838541117572"><ele>167.0</ele><time>2026-04-25T08:16:05Z</time></trkpt><trkpt lat="46.07943860429117" lon="12.596748333842966"><ele>167.0</ele><time>2026-04-25T08:16:11Z</time></trkpt><trkpt lat="46.079441564492576" lon="12.596639769437045"><ele>167.0</ele><time>2026-04-25T08:16:17Z</time></trkpt><trkpt lat="46.07947719453233" lon="12.596563524713469"><ele>167.0</ele><time>2026-04-25T08:16:23.001Z</time></trkpt><trkpt lat="46.079522439377556" lon="12.596498635020144"><ele>167.0</ele><time>2026-04-25T08:16:29.001Z</time></trkpt><trkpt lat="46.0795803807523" lon="12.596446011995734"><ele>167.0</ele><time>2026-04-25T08:16:36.001Z</time></trkpt><trkpt lat="46.07964007999687" lon="12.59638783737696"><ele>167.0</ele><time>2026-04-25T08:16:42.001Z</time></trkpt><trkpt lat="46.079687667839885" lon="12.596319793070546"><ele>167.0</ele><time>2026-04-25T08:16:48.001Z</time></trkpt><trkpt lat="46.07972183852907" lon="12.596228851655475"><ele>167.0</ele><time>2026-04-25T08:16:54.001Z</time></trkpt><trkpt lat="46.079719590013646" lon="12.596131128274335"><ele>167.0</ele><time>2026-04-25T08:17:01.001Z</time></trkpt><trkpt lat="46.07969610146691" lon="12.596041716983672"><ele>167.0</ele><time>2026-04-25T08:17:07.001Z</time></trkpt><trkpt lat="46.07967562736245" lon="12.595948898089407"><ele>167.0</ele><time>2026-04-25T08:17:13.001Z</time></trkpt><trkpt lat="46.07965074718447" lon="12.5958627512654"><ele>167.0</ele><time>2026-04-25T08:17:18.001Z</time></trkpt><trkpt lat="46.07965469916283" lon="12.595752711303358"><ele>167.28571428571428</ele><time>2026-04-25T08:17:24.001Z</time></trkpt><trkpt lat="46.079708305080665" lon="12.595687789984773"><ele>167.57142857142858</ele><time>2026-04-25T08:17:33.001Z</time></trkpt><trkpt lat="46.07976741532203" lon="12.595646235294678"><ele>167.85714285714286</ele><time>2026-04-25T08:17:39Z</time></trkpt><trkpt lat="46.07982548251225" lon="12.59560729092589"><ele>168.14285714285714</ele><time>2026-04-25T08:17:45Z</time></trkpt><trkpt lat="46.07989587179312" lon="12.595570500311549"><ele>168.42857142857142</ele><time>2026-04-25T08:17:51Z</time></trkpt><trkpt lat="46.0799430478026" lon="12.595499386123263"><ele>168.71428571428572</ele><time>2026-04-25T08:17:57Z</time></trkpt><trkpt lat="46.079987203048624" lon="12.595420738397534"><ele>169.0</ele><time>2026-04-25T08:18:02Z</time></trkpt><trkpt lat="46.0800132072233" lon="12.595337787296863"><ele>169.57142857142858</ele><time>2026-04-25T08:18:07Z</time></trkpt><trkpt lat="46.079985336943984" lon="12.5952475742267"><ele>170.14285714285714</ele><time>2026-04-25T08:18:13Z</time></trkpt><trkpt lat="46.079927044121256" lon="12.595181789291306"><ele>170.71428571428572</ele><time>2026-04-25T08:18:19Z</time></trkpt><trkpt lat="46.07985874685642" lon="12.595157694394643"><ele>171.28571428571428</ele><time>2026-04-25T08:18:24Z</time></trkpt><trkpt lat="46.079796285911016" lon="12.595128562155839"><ele>171.85714285714286</ele><time>2026-04-25T08:18:29Z</time></trkpt><trkpt lat="46.07972729014083" lon="12.595107286169025"><ele>172.42857142857142</ele><time>2026-04-25T08:18:35Z</time></trkpt><trkpt lat="46.07966211777484" lon="12.5951007140093"><ele>173.0</ele><time>2026-04-25T08:18:42.001Z</time></trkpt><trkpt lat="46.07959447762989" lon="12.595058932009893"><ele>173.0</ele><time>2026-04-25T08:18:49.001Z</time></trkpt><trkpt lat="46.079533225636276" lon="12.595037717536364"><ele>173.0</ele><time>2026-04-25T08:18:56.001Z</time></trkpt><trkpt lat="46.07946632587271" lon="12.595031832227447"><ele>173.0</ele><time>2026-04-25T08:19:01.001Z</time></trkpt><trkpt lat="46.079403967876786" lon="12.595090501294607"><ele>173.0</ele><time>2026-04-25T08:19:06.001Z</time></trkpt><trkpt lat="46.07937650707414" lon="12.595183846525588"><ele>173.0</ele><time>2026-04-25T08:19:11.001Z</time></trkpt><trkpt lat="46.07938152010045" lon="12.595280499625813"><ele>173.0</ele><time>2026-04-25T08:19:16.001Z</time></trkpt><trkpt lat="46.079413865764835" lon="12.595363683550177"><ele>173.0</ele><time>2026-04-25T08:19:21.001Z</time></trkpt><trkpt lat="46.0794443858293" lon="12.595462525300015"><ele>172.42857142857142</ele><time>2026-04-25T08:19:27.001Z</time></trkpt><trkpt lat="46.07946237159271" lon="12.595561127421268"><ele>171.85714285714286</ele><time>2026-04-25T08:19:33.001Z</time></trkpt><trkpt lat="46.079485204952576" lon="12.595653712640706"><ele>171.28571428571428</ele><time>2026-04-25T08:19:41.001Z</time></trkpt><trkpt lat="46.07949264110164" lon="12.595747798536516"><ele>170.71428571428572</ele><time>2026-04-25T08:19:47Z</time></trkpt><trkpt lat="46.07949466896333" lon="12.59584795447533"><ele>170.14285714285714</ele><time>2026-04-25T08:19:54Z</time></trkpt><trkpt lat="46.07948494854943" lon="12.595939591483187"><ele>169.57142857142858</ele><time>2026-04-25T08:20:00Z</time></trkpt><trkpt lat="46.079465351708684" lon="12.596041440820072"><ele>169.0</ele><time>2026-04-25T08:20:06Z</time></trkpt><trkpt lat="46.07944523500432" lon="12.596132738380092"><ele>168.71428571428572</ele><time>2026-04-25T08:20:12Z</time></trkpt><trkpt lat="46.079413529112095" lon="12.596218529558286"><ele>168.42857142857142</ele><time>2026-04-25T08:20:18Z</time></trkpt><trkpt lat="46.07938014893863" lon="12.596307393248358"><ele>168.14285714285714</ele><time>2026-04-25T08:20:24Z</time></trkpt><trkpt lat="46.07935133180749" lon="12.596408267633407"><ele>167.85714285714286</ele><time>2026-04-25T08:20:30Z</time></trkpt><trkpt lat="46.07933098368371" lon="12.596516793564296"><ele>167.57142857142858</ele><time>2026-04-25T08:20:36Z</time></trkpt><trkpt lat="46.0793055171933" lon="12.596620259371107"><ele>167.28571428571428</ele><time>2026-04-25T08:20:43Z</time></trkpt><trkpt lat="46.079280880934355" lon="12.596713135647132"><ele>167.0</ele><time>2026-04-25T08:20:50Z</time></trkpt><trkpt lat="46.07927318765249" lon="12.596818129878338"><ele>167.0</ele><time>2026-04-25T08:21:20.001Z</time></trkpt><trkpt lat="46.0792248018365" lon="12.59688045579496"><ele>167.0</ele><time>2026-04-25T08:21:27.001Z</time></trkpt><trkpt lat="46.079181274639915" lon="12.596808459866617"><ele>167.0</ele><time>2026-04-25T08:21:33.001Z</time></trkpt><trkpt lat="46.079178441115225" lon="12.596710188904634"><ele>167.0</ele><time>2026-04-25T08:21:40.001Z</time></trkpt><trkpt lat="46.07916999182315" lon="12.596616636868323"><ele>167.0</ele><time>2026-04-25T08:21:49.001Z</time></trkpt><trkpt lat="46.07918422341444" lon="12.596524500830549"><ele>167.0</ele><time>2026-04-25T08:21:54Z</time></trkpt><trkpt lat="46.0791641787417" lon="12.596423198802833"><ele>167.0</ele><time>2026-04-25T08:22:01Z</time></trkpt><trkpt lat="46.079182831852" lon="12.596334193635615"><ele>167.0</ele><time>2026-04-25T08:22:07Z</time></trkpt><trkpt lat="46.07920642667036" lon="12.596243481914165"><ele>167.0</ele><time>2026-04-25T08:22:13Z</time></trkpt><trkpt lat="46.07923904076841" lon="12.596160467303337"><ele>167.0</ele><time>2026-04-25T08:22:19Z</time></trkpt><trkpt lat="46.07924751381384" lon="12.596066709545276"><ele>167.0</ele><time>2026-04-25T08:22:27Z</time></trkpt><trkpt lat="46.079291243165336" lon="12.59597667143111"><ele>167.0</ele><time>2026-04-25T08:22:37Z</time></trkpt><trkpt lat="46.07933767217407" lon="12.595904786954573"><ele>167.0</ele><time>2026-04-25T08:22:43Z</time></trkpt><trkpt lat="46.07938546392726" lon="12.59583259655785"><ele>167.0</ele><time>2026-04-25T08:22:48Z</time></trkpt><trkpt lat="46.0794105555808" lon="12.595744765284994"><ele>167.28571428571428</ele><time>2026-04-25T08:22:53Z</time></trkpt><trkpt lat="46.07937135875791" lon="12.595670353402392"><ele>167.57142857142858</ele><time>2026-04-25T08:23:05Z</time></trkpt><trkpt lat="46.0793069051978" lon="12.595616859006283"><ele>167.85714285714286</ele><time>2026-04-25T08:23:11Z</time></trkpt><trkpt lat="46.07924364499805" lon="12.595620077546416"><ele>168.14285714285714</ele><time>2026-04-25T08:23:16.001Z</time></trkpt><trkpt lat="46.07920178500096" lon="12.59570065383155"><ele>168.42857142857142</ele><time>2026-04-25T08:23:22.001Z</time></trkpt><trkpt lat="46.07919547629819" lon="12.595795305558118"><ele>168.71428571428572</ele><time>2026-04-25T08:23:28.001Z</time></trkpt><trkpt lat="46.07917015744077" lon="12.595898689034803"><ele>169.0</ele><time>2026-04-25T08:23:34.001Z</time></trkpt><trkpt lat="46.07915087593602" lon="12.595990036817314"><ele>169.0</ele><time>2026-04-25T08:23:39.001Z</time></trkpt><trkpt lat="46.079138447688685" lon="12.596081410176273"><ele>169.0</ele><time>2026-04-25T08:23:45.001Z</time></trkpt><trkpt lat="46.07913010022634" lon="12.596186034667307"><ele>169.0</ele><time>2026-04-25T08:23:51.001Z</time></trkpt><trkpt lat="46.07908895821723" lon="12.596264700650446"><ele>169.0</ele><time>2026-04-25T08:24:09Z</time></trkpt><trkpt lat="46.079046860061794" lon="12.596353995814809"><ele>169.0</ele><time>2026-04-25T08:24:15Z</time></trkpt><trkpt lat="46.07901140811172" lon="12.596431318288147"><ele>169.0</ele><time>2026-04-25T08:24:20Z</time></trkpt><trkpt lat="46.07897155400605" lon="12.596506314703136"><ele>169.0</ele><time>2026-04-25T08:24:25Z</time></trkpt><trkpt lat="46.07892407097177" lon="12.596569634268505"><ele>168.85714285714286</ele><time>2026-04-25T08:24:31Z</time></trkpt><trkpt lat="46.07886022090141" lon="12.596530900768142"><ele>168.71428571428572</ele><time>2026-04-25T08:24:45Z</time></trkpt><trkpt lat="46.07887045649882" lon="12.596426256848865"><ele>168.57142857142856</ele><time>2026-04-25T08:24:50Z</time></trkpt><trkpt lat="46.078904648609345" lon="12.596338637727252"><ele>168.42857142857144</ele><time>2026-04-25T08:24:55Z</time></trkpt><trkpt lat="46.078930791633" lon="12.596253342910222"><ele>168.28571428571428</ele><time>2026-04-25T08:25:00Z</time></trkpt><trkpt lat="46.078958958582355" lon="12.596169362981133"><ele>168.14285714285714</ele><time>2026-04-25T08:25:05Z</time></trkpt><trkpt lat="46.078979493715764" lon="12.596081226416718"><ele>168.0</ele><time>2026-04-25T08:25:11Z</time></trkpt><trkpt lat="46.07901344790707" lon="12.595992434170858"><ele>168.14285714285714</ele><time>2026-04-25T08:25:17Z</time></trkpt><trkpt lat="46.07904383616159" lon="12.595912134673306"><ele>168.28571428571428</ele><time>2026-04-25T08:25:22Z</time></trkpt><trkpt lat="46.07907929759615" lon="12.59583388636734"><ele>168.42857142857144</ele><time>2026-04-25T08:25:28Z</time></trkpt><trkpt lat="46.07910791023469" lon="12.595747690673326"><ele>168.57142857142856</ele><time>2026-04-25T08:25:34.001Z</time></trkpt><trkpt lat="46.07914939187112" lon="12.595661627423942"><ele>168.71428571428572</ele><time>2026-04-25T08:25:40.001Z</time></trkpt><trkpt lat="46.07917656902087" lon="12.595578261098623"><ele>168.85714285714286</ele><time>2026-04-25T08:25:45.001Z</time></trkpt><trkpt lat="46.07920154953804" lon="12.59547838665627"><ele>169.0</ele><time>2026-04-25T08:25:51.001Z</time></trkpt><trkpt lat="46.07921617066748" lon="12.59537673011824"><ele>169.57142857142858</ele><time>2026-04-25T08:25:57.001Z</time></trkpt><trkpt lat="46.079220278930514" lon="12.59526892873919"><ele>170.14285714285714</ele><time>2026-04-25T08:26:03Z</time></trkpt><trkpt lat="46.07923449796907" lon="12.59517726818896"><ele>170.71428571428572</ele><time>2026-04-25T08:26:09Z</time></trkpt><trkpt lat="46.079232527492834" lon="12.595075542638265"><ele>171.28571428571428</ele><time>2026-04-25T08:26:15Z</time></trkpt><trkpt lat="46.079221776303754" lon="12.594972629798145"><ele>171.85714285714286</ele><time>2026-04-25T08:26:21Z</time></trkpt><trkpt lat="46.079167541611895" lon="12.594897854142365"><ele>172.42857142857142</ele><time>2026-04-25T08:26:26Z</time></trkpt><trkpt lat="46.07909418398984" lon="12.594924162923043"><ele>173.0</ele><time>2026-04-25T08:26:32Z</time></trkpt><trkpt lat="46.07905453801793" lon="12.594998687172934"><ele>172.57142857142856</ele><time>2026-04-25T08:26:36Z</time></trkpt><trkpt lat="46.079035404456505" lon="12.595105004422722"><ele>172.14285714285717</ele><time>2026-04-25T08:26:41Z</time></trkpt><trkpt lat="46.07902050036302" lon="12.595204664956523"><ele>171.71428571428572</ele><time>2026-04-25T08:26:46Z</time></trkpt><trkpt lat="46.07901227571641" lon="12.595302648865612"><ele>171.28571428571428</ele><time>2026-04-25T08:26:51Z</time></trkpt><trkpt lat="46.07899179343155" lon="12.595393498600608"><ele>170.85714285714283</ele><time>2026-04-25T08:26:58Z</time></trkpt><trkpt lat="46.07899929767174" lon="12.59548724987361"><ele>170.42857142857144</ele><time>2026-04-25T08:27:06Z</time></trkpt><trkpt lat="46.079000452974334" lon="12.595589418758518"><ele>170.0</ele><time>2026-04-25T08:27:13Z</time></trkpt><trkpt lat="46.07896568768903" lon="12.595677622049736"><ele>170.0</ele><time>2026-04-25T08:27:19Z</time></trkpt><trkpt lat="46.078916664516335" lon="12.595739447371495"><ele>170.0</ele><time>2026-04-25T08:27:26Z</time></trkpt><trkpt lat="46.07886639708785" lon="12.595805742419387"><ele>170.0</ele><time>2026-04-25T08:27:32.001Z</time></trkpt><trkpt lat="46.078832701920014" lon="12.595883131837292"><ele>170.0</ele><time>2026-04-25T08:27:37.001Z</time></trkpt><trkpt lat="46.07879492882728" lon="12.595958424004943"><ele>170.0</ele><time>2026-04-25T08:27:42.001Z</time></trkpt><trkpt lat="46.07875957228047" lon="12.596035905998251"><ele>170.0</ele><time>2026-04-25T08:27:47.001Z</time></trkpt><trkpt lat="46.07872791525495" lon="12.596115984725968"><ele>170.0</ele><time>2026-04-25T08:27:52.001Z</time></trkpt><trkpt lat="46.07869625851514" lon="12.59620138583588"><ele>170.0</ele><time>2026-04-25T08:27:59.001Z</time></trkpt><trkpt lat="46.07868890351878" lon="12.596302406208771"><ele>170.0</ele><time>2026-04-25T08:28:11Z</time></trkpt><trkpt lat="46.078636217125045" lon="12.596232161947867"><ele>170.0</ele><time>2026-04-25T08:28:16Z</time></trkpt><trkpt lat="46.078645378779726" lon="12.596127789916391"><ele>170.0</ele><time>2026-04-25T08:28:21Z</time></trkpt><trkpt lat="46.07867312431487" lon="12.596037268015417"><ele>170.0</ele><time>2026-04-25T08:28:26Z</time></trkpt><trkpt lat="46.07870048039216" lon="12.595945800328632"><ele>170.0</ele><time>2026-04-25T08:28:32Z</time></trkpt><trkpt lat="46.07873211425485" lon="12.595852875214696"><ele>170.0</ele><time>2026-04-25T08:28:38Z</time></trkpt><trkpt lat="46.078753479412974" lon="12.59575435714617"><ele>170.0</ele><time>2026-04-25T08:28:44Z</time></trkpt><trkpt lat="46.07878185209145" lon="12.595657581894416"><ele>170.0</ele><time>2026-04-25T08:28:50Z</time></trkpt><trkpt lat="46.0788066467284" lon="12.595572406823106"><ele>170.0</ele><time>2026-04-25T08:28:55Z</time></trkpt><trkpt lat="46.078834628883584" lon="12.595484466254252"><ele>170.0</ele><time>2026-04-25T08:29:00Z</time></trkpt><trkpt lat="46.07886046587035" lon="12.595393771530281"><ele>170.0</ele><time>2026-04-25T08:29:05Z</time></trkpt><trkpt lat="46.0788812414347" lon="12.595297413255558"><ele>170.0</ele><time>2026-04-25T08:29:10Z</time></trkpt><trkpt lat="46.07889043578046" lon="12.595203957315803"><ele>170.0</ele><time>2026-04-25T08:29:15Z</time></trkpt><trkpt lat="46.0788731996053" lon="12.595112082457202"><ele>170.0</ele><time>2026-04-25T08:29:20Z</time></trkpt><trkpt lat="46.078845355448415" lon="12.595025964974988"><ele>170.0</ele><time>2026-04-25T08:29:27.001Z</time></trkpt><trkpt lat="46.07883572777909" lon="12.594926557603975"><ele>170.0</ele><time>2026-04-25T08:29:48.001Z</time></trkpt><trkpt lat="46.07876420187568" lon="12.595037033793286"><ele>170.0</ele><time>2026-04-25T08:30:50Z</time></trkpt><trkpt lat="46.078760792994885" lon="12.595131981627437"><ele>170.0</ele><time>2026-04-25T08:30:56Z</time></trkpt><trkpt lat="46.078756183046885" lon="12.595225139725741"><ele>170.0</ele><time>2026-04-25T08:31:01Z</time></trkpt><trkpt lat="46.07873656640426" lon="12.595326586731273"><ele>170.0</ele><time>2026-04-25T08:31:07Z</time></trkpt><trkpt lat="46.07870846358781" lon="12.595408247277426"><ele>170.0</ele><time>2026-04-25T08:31:12Z</time></trkpt><trkpt lat="46.07868931118259" lon="12.595510823159527"><ele>170.0</ele><time>2026-04-25T08:31:18Z</time></trkpt><trkpt lat="46.07865936841287" lon="12.595423286444316"><ele>170.0</ele><time>2026-04-25T08:31:29Z</time></trkpt><trkpt lat="46.0786456188736" lon="12.595326031321918"><ele>170.0</ele><time>2026-04-25T08:31:34Z</time></trkpt><trkpt lat="46.078648512632384" lon="12.595228902985067"><ele>170.0</ele><time>2026-04-25T08:31:39Z</time></trkpt><trkpt lat="46.0786576090123" lon="12.595137294321333"><ele>170.0</ele><time>2026-04-25T08:31:44Z</time></trkpt><trkpt lat="46.07862160283055" lon="12.59506024734499"><ele>170.0</ele><time>2026-04-25T08:31:50.001Z</time></trkpt><trkpt lat="46.078569355604294" lon="12.59513065734347"><ele>170.0</ele><time>2026-04-25T08:31:56.001Z</time></trkpt><trkpt lat="46.07855223973983" lon="12.595225788172213"><ele>170.0</ele><time>2026-04-25T08:32:01.001Z</time></trkpt><trkpt lat="46.07853231936098" lon="12.595316920235371"><ele>170.0</ele><time>2026-04-25T08:32:06.001Z</time></trkpt><trkpt lat="46.07849188937876" lon="12.595403940584758"><ele>170.0</ele><time>2026-04-25T08:32:12.001Z</time></trkpt><trkpt lat="46.07844081304584" lon="12.59548077783725"><ele>170.0</ele><time>2026-04-25T08:32:18.001Z</time></trkpt><trkpt lat="46.07843911269706" lon="12.595582804651118"><ele>170.0</ele><time>2026-04-25T08:32:30.999Z</time></trkpt><trkpt lat="46.078490347222605" lon="12.595646217860395"><ele>170.0</ele><time>2026-04-25T08:32:36.999Z</time></trkpt><trkpt lat="46.07855349742821" lon="12.595666401282223"><ele>170.0</ele><time>2026-04-25T08:32:42Z</time></trkpt><trkpt lat="46.07859707599357" lon="12.595739741990844"><ele>170.0</ele><time>2026-04-25T08:32:49Z</time></trkpt><trkpt lat="46.07856567750482" lon="12.595825585863897"><ele>170.0</ele><time>2026-04-25T08:32:54Z</time></trkpt><trkpt lat="46.07849992645047" lon="12.595872345161983"><ele>170.0</ele><time>2026-04-25T08:33:00Z</time></trkpt><trkpt lat="46.078445201960434" lon="12.595918758022927"><ele>170.0</ele><time>2026-04-25T08:33:05Z</time></trkpt><trkpt lat="46.078381656513294" lon="12.595943949251499"><ele>170.0</ele><time>2026-04-25T08:33:10Z</time></trkpt><trkpt lat="46.07832802585684" lon="12.595994944611098"><ele>170.0</ele><time>2026-04-25T08:33:15Z</time></trkpt><trkpt lat="46.07827176932862" lon="12.59606402365345"><ele>170.14285714285714</ele><time>2026-04-25T08:33:21Z</time></trkpt><trkpt lat="46.078218509432396" lon="12.596113690665321"><ele>170.28571428571428</ele><time>2026-04-25T08:33:26Z</time></trkpt><trkpt lat="46.07817483784116" lon="12.596198738853621"><ele>170.42857142857142</ele><time>2026-04-25T08:33:32Z</time></trkpt><trkpt lat="46.078119731538884" lon="12.596270201494612"><ele>170.57142857142856</ele><time>2026-04-25T08:33:38Z</time></trkpt><trkpt lat="46.0780723184638" lon="12.596347153701215"><ele>170.71428571428572</ele><time>2026-04-25T08:33:44.001Z</time></trkpt><trkpt lat="46.078019907057424" lon="12.596420226605922"><ele>170.85714285714283</ele><time>2026-04-25T08:33:50.001Z</time></trkpt><trkpt lat="46.077980253879076" lon="12.596507103726754"><ele>171.0</ele><time>2026-04-25T08:33:56.001Z</time></trkpt><trkpt lat="46.07795355783867" lon="12.596597705566243"><ele>170.14285714285714</ele><time>2026-04-25T08:34:02.001Z</time></trkpt><trkpt lat="46.077939092277376" lon="12.59670269152541"><ele>169.28571428571428</ele><time>2026-04-25T08:34:08.001Z</time></trkpt><trkpt lat="46.0779159647544" lon="12.596803938687344"><ele>168.42857142857144</ele><time>2026-04-25T08:34:14.001Z</time></trkpt><trkpt lat="46.077890969271635" lon="12.59689622343393"><ele>167.57142857142856</ele><time>2026-04-25T08:34:20.001Z</time></trkpt><trkpt lat="46.07786615147735" lon="12.59699100032506"><ele>166.71428571428572</ele><time>2026-04-25T08:34:27Z</time></trkpt><trkpt lat="46.07785747213641" lon="12.597085865004242"><ele>165.85714285714286</ele><time>2026-04-25T08:34:32Z</time></trkpt><trkpt lat="46.077848536229936" lon="12.597189704937971"><ele>165.0</ele><time>2026-04-25T08:34:38Z</time></trkpt><trkpt lat="46.07783934316979" lon="12.597289368067706"><ele>165.00000000000003</ele><time>2026-04-25T08:34:44Z</time></trkpt><trkpt lat="46.077830766640446" lon="12.597393332381861"><ele>165.0</ele><time>2026-04-25T08:34:50Z</time></trkpt><trkpt lat="46.077816058416644" lon="12.597482976591854"><ele>165.0</ele><time>2026-04-25T08:34:55Z</time></trkpt><trkpt lat="46.07779600416343" lon="12.597572015962909"><ele>165.0</ele><time>2026-04-25T08:35:00Z</time></trkpt><trkpt lat="46.0777643873654" lon="12.597652135718203"><ele>165.0</ele><time>2026-04-25T08:35:05Z</time></trkpt><trkpt lat="46.07770193364406" lon="12.597608396327034"><ele>165.00000000000003</ele><time>2026-04-25T08:35:10Z</time></trkpt><trkpt lat="46.07768667639006" lon="12.59751810239556"><ele>165.0</ele><time>2026-04-25T08:35:15Z</time></trkpt><trkpt lat="46.07769699331061" lon="12.597422056766394"><ele>165.00000000000003</ele><time>2026-04-25T08:35:20Z</time></trkpt><trkpt lat="46.07771331787915" lon="12.597322689896945"><ele>165.0</ele><time>2026-04-25T08:35:29.001Z</time></trkpt><trkpt lat="46.07773666246614" lon="12.597237333257418"><ele>165.0</ele><time>2026-04-25T08:35:35.001Z</time></trkpt><trkpt lat="46.07774707398234" lon="12.597144290973203"><ele>165.0</ele><time>2026-04-25T08:35:40.001Z</time></trkpt><trkpt lat="46.07777066007994" lon="12.597050198000591"><ele>165.0</ele><time>2026-04-25T08:35:45.001Z</time></trkpt><trkpt lat="46.077782593319554" lon="12.596952112625315"><ele>165.00000000000003</ele><time>2026-04-25T08:35:51.001Z</time></trkpt><trkpt lat="46.077791390890184" lon="12.596859589531263"><ele>165.0</ele><time>2026-04-25T08:35:57.001Z</time></trkpt><trkpt lat="46.07779653132019" lon="12.596758974223114"><ele>165.00000000000003</ele><time>2026-04-25T08:36:03.001Z</time></trkpt><trkpt lat="46.07781178533978" lon="12.59666461789453"><ele>165.0</ele><time>2026-04-25T08:36:08.001Z</time></trkpt><trkpt lat="46.07782989261193" lon="12.596574589720017"><ele>165.0</ele><time>2026-04-25T08:36:13.001Z</time></trkpt><trkpt lat="46.0778420367997" lon="12.596466247714613"><ele>165.0</ele><time>2026-04-25T08:36:19.001Z</time></trkpt><trkpt lat="46.077851981644386" lon="12.596364975677426"><ele>165.0</ele><time>2026-04-25T08:36:24.001Z</time></trkpt><trkpt lat="46.07786343676264" lon="12.596269921198836"><ele>165.00000000000003</ele><time>2026-04-25T08:36:29.001Z</time></trkpt><trkpt lat="46.07786083669606" lon="12.596165948124213"><ele>165.0</ele><time>2026-04-25T08:36:35Z</time></trkpt><trkpt lat="46.07788374677777" lon="12.596063927708498"><ele>165.85714285714286</ele><time>2026-04-25T08:36:41Z</time></trkpt><trkpt lat="46.07795455676309" lon="12.596027687221104"><ele>166.71428571428572</ele><time>2026-04-25T08:36:47Z</time></trkpt><trkpt lat="46.0780225875427" lon="12.596049076098966"><ele>167.57142857142856</ele><time>2026-04-25T08:36:53Z</time></trkpt><trkpt lat="46.078088826746274" lon="12.596057341949114"><ele>168.42857142857144</ele><time>2026-04-25T08:37:00Z</time></trkpt><trkpt lat="46.07814986722393" lon="12.596026096225645"><ele>169.28571428571428</ele><time>2026-04-25T08:37:06Z</time></trkpt><trkpt lat="46.07819498279468" lon="12.595954759737547"><ele>170.14285714285714</ele><time>2026-04-25T08:37:12.001Z</time></trkpt><trkpt lat="46.078222349447266" lon="12.595855296308608"><ele>171.0</ele><time>2026-04-25T08:37:18.001Z</time></trkpt><trkpt lat="46.0782324462278" lon="12.595754617782584"><ele>170.99999999999997</ele><time>2026-04-25T08:37:24.001Z</time></trkpt><trkpt lat="46.078236220895455" lon="12.595652367827137"><ele>171.0</ele><time>2026-04-25T08:37:30.001Z</time></trkpt><trkpt lat="46.0782254647611" lon="12.595553741588787"><ele>171.0</ele><time>2026-04-25T08:37:35.001Z</time></trkpt><trkpt lat="46.07821602231062" lon="12.595449924903434"><ele>171.0</ele><time>2026-04-25T08:37:41.001Z</time></trkpt><trkpt lat="46.07815333484008" lon="12.595399883351874"><ele>171.0</ele><time>2026-04-25T08:37:47.001Z</time></trkpt><trkpt lat="46.07808825763031" lon="12.595432128879763"><ele>170.99999999999997</ele><time>2026-04-25T08:37:52.001Z</time></trkpt><trkpt lat="46.07804135921203" lon="12.595500129157095"><ele>171.0</ele><time>2026-04-25T08:37:58.001Z</time></trkpt><trkpt lat="46.07799267728107" lon="12.595582886358446"><ele>170.99999999999997</ele><time>2026-04-25T08:38:04.001Z</time></trkpt><trkpt lat="46.077950162005315" lon="12.595674951291896"><ele>171.0</ele><time>2026-04-25T08:38:10.001Z</time></trkpt><trkpt lat="46.07792880390691" lon="12.59577045393046"><ele>171.0</ele><time>2026-04-25T08:38:15.001Z</time></trkpt><trkpt lat="46.07788225966285" lon="12.595838380546441"><ele>171.0</ele><time>2026-04-25T08:38:20.001Z</time></trkpt><trkpt lat="46.077841011346216" lon="12.595907054686895"><ele>171.0</ele><time>2026-04-25T08:38:25.001Z</time></trkpt><trkpt lat="46.077802720968876" lon="12.595983767271129"><ele>170.99999999999997</ele><time>2026-04-25T08:38:30.001Z</time></trkpt><trkpt lat="46.077766791611964" lon="12.596065058717016"><ele>171.0</ele><time>2026-04-25T08:38:36.001Z</time></trkpt><trkpt lat="46.07773544730146" lon="12.596148284706524"><ele>170.14285714285714</ele><time>2026-04-25T08:38:45Z</time></trkpt><trkpt lat="46.077723576643216" lon="12.596243113318739"><ele>169.28571428571428</ele><time>2026-04-25T08:38:57Z</time></trkpt><trkpt lat="46.07770505364617" lon="12.596332936304673"><ele>168.42857142857144</ele><time>2026-04-25T08:39:42.001Z</time></trkpt><trkpt lat="46.07768134471925" lon="12.596419090006913"><ele>167.57142857142856</ele><time>2026-04-25T08:39:47.001Z</time></trkpt><trkpt lat="46.077649762717904" lon="12.596505621816242"><ele>166.71428571428572</ele><time>2026-04-25T08:39:52.001Z</time></trkpt><trkpt lat="46.077588979780984" lon="12.596546376788353"><ele>165.85714285714286</ele><time>2026-04-25T08:39:57.001Z</time></trkpt><trkpt lat="46.07757080382993" lon="12.596446156463076"><ele>165.0</ele><time>2026-04-25T08:40:06.001Z</time></trkpt><trkpt lat="46.077557426525765" lon="12.59635024585077"><ele>165.00000000000003</ele><time>2026-04-25T08:40:12.001Z</time></trkpt><trkpt lat="46.07753068355364" lon="12.596254829089855"><ele>165.0</ele><time>2026-04-25T08:40:19.001Z</time></trkpt><trkpt lat="46.07750783656526" lon="12.596163138305249"><ele>165.0</ele><time>2026-04-25T08:40:26.001Z</time></trkpt><trkpt lat="46.07746719044066" lon="12.596089371661552"><ele>165.0</ele><time>2026-04-25T08:40:32.001Z</time></trkpt><trkpt lat="46.0774284886497" lon="12.59599426583158"><ele>165.0</ele><time>2026-04-25T08:40:37.001Z</time></trkpt><trkpt lat="46.077382501475064" lon="12.59593100906033"><ele>165.00000000000003</ele><time>2026-04-25T08:40:43.001Z</time></trkpt><trkpt lat="46.07734442497806" lon="12.595848394806149"><ele>165.0</ele><time>2026-04-25T08:40:49.998Z</time></trkpt><trkpt lat="46.077323612290655" lon="12.595753713563122"><ele>165.85714285714286</ele><time>2026-04-25T08:41:00.999Z</time></trkpt><trkpt lat="46.07738132545507" lon="12.595702312314419"><ele>166.71428571428572</ele><time>2026-04-25T08:41:08.999Z</time></trkpt><trkpt lat="46.077422267239655" lon="12.595791460105424"><ele>167.57142857142856</ele><time>2026-04-25T08:41:14.999Z</time></trkpt><trkpt lat="46.07747931805073" lon="12.595837110468876"><ele>168.42857142857144</ele><time>2026-04-25T08:41:19.999Z</time></trkpt><trkpt lat="46.07751695297542" lon="12.595919012080817"><ele>169.28571428571428</ele><time>2026-04-25T08:41:25Z</time></trkpt><trkpt lat="46.07754507852029" lon="12.596016465931138"><ele>170.14285714285714</ele><time>2026-04-25T08:41:31Z</time></trkpt><trkpt lat="46.07760648282963" lon="12.596060732106569"><ele>171.0</ele><time>2026-04-25T08:41:36Z</time></trkpt><trkpt lat="46.077661841182625" lon="12.596012779395679"><ele>170.99999999999997</ele><time>2026-04-25T08:41:40Z</time></trkpt><trkpt lat="46.0776919516549" lon="12.595922956979027"><ele>171.0</ele><time>2026-04-25T08:41:45Z</time></trkpt><trkpt lat="46.07768856809096" lon="12.595825971958547"><ele>171.0</ele><time>2026-04-25T08:41:50Z</time></trkpt><trkpt lat="46.077715988821936" lon="12.595731846385938"><ele>171.0</ele><time>2026-04-25T08:42:00Z</time></trkpt><trkpt lat="46.07772460974577" lon="12.595636483464276"><ele>171.0</ele><time>2026-04-25T08:42:06Z</time></trkpt><trkpt lat="46.07776339914295" lon="12.595561984168922"><ele>170.99999999999997</ele><time>2026-04-25T08:42:11Z</time></trkpt><trkpt lat="46.077756873987255" lon="12.595468226249906"><ele>171.0</ele><time>2026-04-25T08:42:17Z</time></trkpt><trkpt lat="46.07769525912376" lon="12.595420020672355"><ele>170.99999999999997</ele><time>2026-04-25T08:42:23.001Z</time></trkpt><trkpt lat="46.0776408324532" lon="12.595372778385256"><ele>171.0</ele><time>2026-04-25T08:42:28.001Z</time></trkpt><trkpt lat="46.07758019306604" lon="12.595320153310613"><ele>171.0</ele><time>2026-04-25T08:42:34.001Z</time></trkpt><trkpt lat="46.07751673194324" lon="12.595342369099496"><ele>171.0</ele><time>2026-04-25T08:42:41.001Z</time></trkpt><trkpt lat="46.07746354234479" lon="12.595393062391453"><ele>171.0</ele><time>2026-04-25T08:42:45.001Z</time></trkpt><trkpt lat="46.07740106881069" lon="12.59542964966199"><ele>170.99999999999997</ele><time>2026-04-25T08:42:49.999Z</time></trkpt><trkpt lat="46.07733376295343" lon="12.595463133507288"><ele>171.0</ele><time>2026-04-25T08:42:55.999Z</time></trkpt><trkpt lat="46.07727678416286" lon="12.595502810890652"><ele>171.28571428571428</ele><time>2026-04-25T08:43:00.999Z</time></trkpt><trkpt lat="46.07720885411235" lon="12.595530187631828"><ele>171.57142857142856</ele><time>2026-04-25T08:43:07Z</time></trkpt><trkpt lat="46.077140284238716" lon="12.595568502602978"><ele>171.85714285714283</ele><time>2026-04-25T08:43:13Z</time></trkpt><trkpt lat="46.07708515191383" lon="12.5956136710186"><ele>172.14285714285714</ele><time>2026-04-25T08:43:18Z</time></trkpt><trkpt lat="46.077025498288485" lon="12.595647329730394"><ele>172.42857142857144</ele><time>2026-04-25T08:43:23Z</time></trkpt><trkpt lat="46.07696516288521" lon="12.595689600995843"><ele>172.7142857142857</ele><time>2026-04-25T08:43:29Z</time></trkpt><trkpt lat="46.07693167620244" lon="12.595774536284386"><ele>173.0</ele><time>2026-04-25T08:43:43Z</time></trkpt><trkpt lat="46.07698397083815" lon="12.595848513637469"><ele>173.0</ele><time>2026-04-25T08:43:52.001Z</time></trkpt><trkpt lat="46.07702704820067" lon="12.595924474271264"><ele>173.0</ele><time>2026-04-25T08:43:56.001Z</time></trkpt><trkpt lat="46.07701295414977" lon="12.596032401157183"><ele>173.0</ele><time>2026-04-25T08:44:01.001Z</time></trkpt><trkpt lat="46.07692631285345" lon="12.596030280388675"><ele>173.0</ele><time>2026-04-25T08:44:05.001Z</time></trkpt><trkpt lat="46.07684768250608" lon="12.596001347034624"><ele>173.0</ele><time>2026-04-25T08:44:09.001Z</time></trkpt><trkpt lat="46.07677324824159" lon="12.595990229455948"><ele>173.0</ele><time>2026-04-25T08:44:19.001Z</time></trkpt><trkpt lat="46.076705789337666" lon="12.595923924940243"><ele>173.0</ele><time>2026-04-25T08:44:24.001Z</time></trkpt><trkpt lat="46.0766382221239" lon="12.595975831613012"><ele>173.0</ele><time>2026-04-25T08:44:33.001Z</time></trkpt><trkpt lat="46.07662545372881" lon="12.596066810491228"><ele>173.0</ele><time>2026-04-25T08:44:39.001Z</time></trkpt><trkpt lat="46.07668471525101" lon="12.596110761330436"><ele>173.0</ele><time>2026-04-25T08:44:41.001Z</time></trkpt><trkpt lat="46.07670487521209" lon="12.596204142287938"><ele>173.0</ele><time>2026-04-25T08:44:50.002Z</time></trkpt><trkpt lat="46.076741806730105" lon="12.59629467928015"><ele>173.0</ele><time>2026-04-25T08:45:03.001Z</time></trkpt><trkpt lat="46.07675193754799" lon="12.59638763074147"><ele>173.0</ele><time>2026-04-25T08:45:10Z</time></trkpt><trkpt lat="46.07673812859053" lon="12.596487128798202"><ele>171.85714285714286</ele><time>2026-04-25T08:45:14Z</time></trkpt><trkpt lat="46.076817649024" lon="12.596464826524274"><ele>170.71428571428572</ele><time>2026-04-25T08:45:25.001Z</time></trkpt><trkpt lat="46.07688959217129" lon="12.596486114514642"><ele>169.57142857142858</ele><time>2026-04-25T08:45:29.001Z</time></trkpt><trkpt lat="46.07696278281659" lon="12.596518342883716"><ele>168.42857142857144</ele><time>2026-04-25T08:45:34.001Z</time></trkpt><trkpt lat="46.077031605724116" lon="12.596524115215804"><ele>167.28571428571428</ele><time>2026-04-25T08:45:39.001Z</time></trkpt><trkpt lat="46.077103058547564" lon="12.596550843486007"><ele>166.14285714285717</ele><time>2026-04-25T08:45:44.001Z</time></trkpt><trkpt lat="46.077156176841136" lon="12.59647531283617"><ele>165.0</ele><time>2026-04-25T08:45:49.001Z</time></trkpt><trkpt lat="46.07715874660721" lon="12.596381504223979"><ele>165.00000000000003</ele><time>2026-04-25T08:45:53.001Z</time></trkpt><trkpt lat="46.07716758827279" lon="12.596276710769843"><ele>165.0</ele><time>2026-04-25T08:45:58.001Z</time></trkpt><trkpt lat="46.07715266835621" lon="12.596180950139189"><ele>165.0</ele><time>2026-04-25T08:46:03.001Z</time></trkpt><trkpt lat="46.077178015569515" lon="12.596089963287655"><ele>165.0</ele><time>2026-04-25T08:46:08.001Z</time></trkpt><trkpt lat="46.07714791719001" lon="12.596009375328206"><ele>165.0</ele><time>2026-04-25T08:46:12.001Z</time></trkpt><trkpt lat="46.0771147214658" lon="12.59591648506783"><ele>165.00000000000003</ele><time>2026-04-25T08:46:17.001Z</time></trkpt><trkpt lat="46.07707558666014" lon="12.5958453908706"><ele>165.0</ele><time>2026-04-25T08:46:23.001Z</time></trkpt><trkpt lat="46.07712714837789" lon="12.595765469943323"><ele>165.00000000000003</ele><time>2026-04-25T08:46:40.002Z</time></trkpt><trkpt lat="46.077190674836366" lon="12.595792842975731"><ele>165.0</ele><time>2026-04-25T08:46:44.002Z</time></trkpt><trkpt lat="46.07719637089989" lon="12.595897679338313"><ele>165.0</ele><time>2026-04-25T08:46:48.002Z</time></trkpt><trkpt lat="46.077247199354616" lon="12.595972800698428"><ele>165.0</ele><time>2026-04-25T08:46:54.002Z</time></trkpt><trkpt lat="46.077248418531894" lon="12.596072187119441"><ele>165.0</ele><time>2026-04-25T08:47:02.001Z</time></trkpt><trkpt lat="46.0772563805636" lon="12.596176881494005"><ele>165.00000000000003</ele><time>2026-04-25T08:47:08.001Z</time></trkpt><trkpt lat="46.07725497695586" lon="12.596280689585475"><ele>165.0</ele><time>2026-04-25T08:47:13.001Z</time></trkpt><trkpt lat="46.077269120728346" lon="12.59637797668735"><ele>165.00000000000003</ele><time>2026-04-25T08:47:24.001Z</time></trkpt><trkpt lat="46.07730975736837" lon="12.596448003326346"><ele>165.0</ele><time>2026-04-25T08:47:30.001Z</time></trkpt><trkpt lat="46.07736250560435" lon="12.596518300832205"><ele>165.0</ele><time>2026-04-25T08:47:36.001Z</time></trkpt><trkpt lat="46.07737420795855" lon="12.596614879577029"><ele>165.0</ele><time>2026-04-25T08:47:41.001Z</time></trkpt><trkpt lat="46.07742892517145" lon="12.596667538751172"><ele>165.0</ele><time>2026-04-25T08:47:52.001Z</time></trkpt><trkpt lat="46.07748607736606" lon="12.596713455186526"><ele>165.00000000000003</ele><time>2026-04-25T08:47:58.001Z</time></trkpt><trkpt lat="46.07754137343748" lon="12.596785292111024"><ele>165.0</ele><time>2026-04-25T08:48:03.001Z</time></trkpt><trkpt lat="46.077576374660936" lon="12.59687158602023"><ele>165.00000000000003</ele><time>2026-04-25T08:48:08.001Z</time></trkpt><trkpt lat="46.07750478627447" lon="12.596913072489716"><ele>165.0</ele><time>2026-04-25T08:48:13.001Z</time></trkpt><trkpt lat="46.0774366884367" lon="12.596914632103667"><ele>165.0</ele><time>2026-04-25T08:48:18.001Z</time></trkpt><trkpt lat="46.0773782245621" lon="12.596965580724415"><ele>165.0</ele><time>2026-04-25T08:48:23.001Z</time></trkpt><trkpt lat="46.07731489081481" lon="12.59696901446484"><ele>165.0</ele><time>2026-04-25T08:48:28.001Z</time></trkpt><trkpt lat="46.077246800367874" lon="12.59700763624047"><ele>165.00000000000003</ele><time>2026-04-25T08:48:34.001Z</time></trkpt><trkpt lat="46.07718449523933" lon="12.597057238884663"><ele>165.0</ele><time>2026-04-25T08:48:40.001Z</time></trkpt><trkpt lat="46.07712998511948" lon="12.597116652939285"><ele>165.00000000000003</ele><time>2026-04-25T08:48:46.002Z</time></trkpt><trkpt lat="46.07708202816405" lon="12.597195274344472"><ele>165.0</ele><time>2026-04-25T08:48:52.002Z</time></trkpt><trkpt lat="46.07702493851446" lon="12.597248458007357"><ele>165.0</ele><time>2026-04-25T08:48:58.002Z</time></trkpt><trkpt lat="46.07698226976024" lon="12.597330968561204"><ele>165.0</ele><time>2026-04-25T08:49:04.002Z</time></trkpt><trkpt lat="46.076932548363395" lon="12.597386811734356"><ele>165.0</ele><time>2026-04-25T08:49:10.001Z</time></trkpt><trkpt lat="46.07686523686488" lon="12.597420048237355"><ele>165.00000000000003</ele><time>2026-04-25T08:49:29.001Z</time></trkpt><trkpt lat="46.07685680036827" lon="12.597326751796173"><ele>165.0</ele><time>2026-04-25T08:49:35.001Z</time></trkpt><trkpt lat="46.07683422608518" lon="12.597227609280019"><ele>165.00000000000003</ele><time>2026-04-25T08:49:40.001Z</time></trkpt><trkpt lat="46.076886247839134" lon="12.597158633522032"><ele>165.0</ele><time>2026-04-25T08:49:45.001Z</time></trkpt><trkpt lat="46.07693751823485" lon="12.597100932100652"><ele>165.0</ele><time>2026-04-25T08:49:50.001Z</time></trkpt><trkpt lat="46.07698364020215" lon="12.597035024981997"><ele>165.0</ele><time>2026-04-25T08:49:55.001Z</time></trkpt><trkpt lat="46.077038333360406" lon="12.596981254400431"><ele>165.0</ele><time>2026-04-25T08:50:00.001Z</time></trkpt><trkpt lat="46.07708751363264" lon="12.596911593291422"><ele>165.00000000000003</ele><time>2026-04-25T08:50:06.001Z</time></trkpt><trkpt lat="46.07710825920382" lon="12.596823522963447"><ele>165.0</ele><time>2026-04-25T08:50:18.001Z</time></trkpt><trkpt lat="46.07705412790578" lon="12.59675077231868"><ele>165.00000000000003</ele><time>2026-04-25T08:50:25.001Z</time></trkpt><trkpt lat="46.07699830707329" lon="12.59669861934793"><ele>165.0</ele><time>2026-04-25T08:50:30.001Z</time></trkpt><trkpt lat="46.07693957944292" lon="12.596661183132007"><ele>165.0</ele><time>2026-04-25T08:50:35.001Z</time></trkpt><trkpt lat="46.07687951068416" lon="12.59662134114995"><ele>165.0</ele><time>2026-04-25T08:50:40.001Z</time></trkpt><trkpt lat="46.07681976302669" lon="12.596585364547266"><ele>165.0</ele><time>2026-04-25T08:50:45.001Z</time></trkpt><trkpt lat="46.07675040939531" lon="12.59655437793034"><ele>165.00000000000003</ele><time>2026-04-25T08:50:51.001Z</time></trkpt><trkpt lat="46.07668810925055" lon="12.59650552219526"><ele>165.0</ele><time>2026-04-25T08:50:57.001Z</time></trkpt><trkpt lat="46.07665236263121" lon="12.596427839788992"><ele>165.00000000000003</ele><time>2026-04-25T08:51:02.001Z</time></trkpt><trkpt lat="46.076616953190864" lon="12.596347793773631"><ele>165.0</ele><time>2026-04-25T08:51:07.001Z</time></trkpt><trkpt lat="46.076605278746385" lon="12.596251348796404"><ele>165.0</ele><time>2026-04-25T08:51:12.001Z</time></trkpt><trkpt lat="46.076605853176424" lon="12.596145518328765"><ele>165.0</ele><time>2026-04-25T08:51:17.001Z</time></trkpt><trkpt lat="46.076587521452865" lon="12.596040781452196"><ele>165.0</ele><time>2026-04-25T08:51:22Z</time></trkpt><trkpt lat="46.07661439538476" lon="12.595951001836323"><ele>165.00000000000003</ele><time>2026-04-25T08:51:27Z</time></trkpt><trkpt lat="46.076546499783014" lon="12.595893913263561"><ele>165.0</ele><time>2026-04-25T08:51:32Z</time></trkpt><trkpt lat="46.07649099588904" lon="12.595839254123785"><ele>165.00000000000003</ele><time>2026-04-25T08:51:37Z</time></trkpt><trkpt lat="46.076441710753784" lon="12.595901079773421"><ele>165.0</ele><time>2026-04-25T08:51:54Z</time></trkpt><trkpt lat="46.076452414510065" lon="12.59599562476466"><ele>165.0</ele><time>2026-04-25T08:52:00.001Z</time></trkpt><trkpt lat="46.07650732823354" lon="12.59607901761254"><ele>165.0</ele><time>2026-04-25T08:52:06.001Z</time></trkpt><trkpt lat="46.07654484149497" lon="12.596162105700058"><ele>165.0</ele><time>2026-04-25T08:52:11.001Z</time></trkpt><trkpt lat="46.07657187664795" lon="12.596266014474198"><ele>165.00000000000003</ele><time>2026-04-25T08:52:15.001Z</time></trkpt><trkpt lat="46.07656258201207" lon="12.596364935938865"><ele>165.0</ele><time>2026-04-25T08:52:19.001Z</time></trkpt><trkpt lat="46.0765538015357" lon="12.596456869215206"><ele>165.00000000000003</ele><time>2026-04-25T08:52:24.001Z</time></trkpt><trkpt lat="46.07653285158926" lon="12.59654728352529"><ele>165.0</ele><time>2026-04-25T08:52:30.001Z</time></trkpt><trkpt lat="46.07646607608032" lon="12.596539915623826"><ele>165.0</ele><time>2026-04-25T08:52:35.001Z</time></trkpt><trkpt lat="46.076426807492844" lon="12.59644314565133"><ele>165.0</ele><time>2026-04-25T08:52:39.001Z</time></trkpt><trkpt lat="46.07643302586565" lon="12.59632751117797"><ele>165.0</ele><time>2026-04-25T08:52:43.001Z</time></trkpt><trkpt lat="46.07643546037575" lon="12.596218596002217"><ele>165.00000000000003</ele><time>2026-04-25T08:52:47.001Z</time></trkpt><trkpt lat="46.0764404766731" lon="12.59611340654078"><ele>165.0</ele><time>2026-04-25T08:52:52.001Z</time></trkpt><trkpt lat="46.07644335061072" lon="12.596015935447321"><ele>165.00000000000003</ele><time>2026-04-25T08:53:02.001Z</time></trkpt><trkpt lat="46.07636957898401" lon="12.595988020949997"><ele>165.0</ele><time>2026-04-25T08:53:07.001Z</time></trkpt><trkpt lat="46.07630703991714" lon="12.596046557639744"><ele>165.0</ele><time>2026-04-25T08:53:13.001Z</time></trkpt><trkpt lat="46.07629897568195" lon="12.596146179762577"><ele>165.0</ele><time>2026-04-25T08:53:20Z</time></trkpt><trkpt lat="46.07633146975414" lon="12.59623875561504"><ele>165.0</ele><time>2026-04-25T08:53:24Z</time></trkpt><trkpt lat="46.07637493882471" lon="12.596305404517429"><ele>165.00000000000003</ele><time>2026-04-25T08:53:28Z</time></trkpt><trkpt lat="46.07641400417759" lon="12.596386226534337"><ele>165.0</ele><time>2026-04-25T08:53:34Z</time></trkpt><trkpt lat="46.07641845127648" lon="12.596487147181062"><ele>165.00000000000003</ele><time>2026-04-25T08:53:40Z</time></trkpt><trkpt lat="46.07645645062129" lon="12.596563068968768"><ele>165.0</ele><time>2026-04-25T08:53:45Z</time></trkpt><trkpt lat="46.07652178436297" lon="12.596590726228262"><ele>165.0</ele><time>2026-04-25T08:53:49Z</time></trkpt><trkpt lat="46.07658248282926" lon="12.596628162737375"><ele>165.0</ele><time>2026-04-25T08:53:57Z</time></trkpt><trkpt lat="46.07664577715358" lon="12.5966663253036"><ele>165.0</ele><time>2026-04-25T08:54:01Z</time></trkpt><trkpt lat="46.076705308117546" lon="12.596713877380608"><ele>165.00000000000003</ele><time>2026-04-25T08:54:08Z</time></trkpt><trkpt lat="46.07677150734937" lon="12.596767137558047"><ele>165.0</ele><time>2026-04-25T08:54:14Z</time></trkpt><trkpt lat="46.07681735502503" lon="12.596834648318094"><ele>165.00000000000003</ele><time>2026-04-25T08:54:19.001Z</time></trkpt><trkpt lat="46.07680845629873" lon="12.59692755548918"><ele>165.0</ele><time>2026-04-25T08:54:24.001Z</time></trkpt><trkpt lat="46.076741979185414" lon="12.596916000595206"><ele>165.0</ele><time>2026-04-25T08:54:29.001Z</time></trkpt><trkpt lat="46.07667321181641" lon="12.596862690786269"><ele>165.0</ele><time>2026-04-25T08:54:35.001Z</time></trkpt><trkpt lat="46.07660911407423" lon="12.596808895772975"><ele>165.0</ele><time>2026-04-25T08:54:41.001Z</time></trkpt><trkpt lat="46.07654561906642" lon="12.596808505139862"><ele>165.00000000000003</ele><time>2026-04-25T08:54:45.001Z</time></trkpt><trkpt lat="46.076478618293514" lon="12.596848684807192"><ele>165.0</ele><time>2026-04-25T08:54:50.001Z</time></trkpt><trkpt lat="46.076419261093086" lon="12.596905366633994"><ele>165.00000000000003</ele><time>2026-04-25T08:54:55.001Z</time></trkpt><trkpt lat="46.0763572317938" lon="12.596955518651873"><ele>165.0</ele><time>2026-04-25T08:55:00.001Z</time></trkpt><trkpt lat="46.07630655231489" lon="12.597026729824892"><ele>165.0</ele><time>2026-04-25T08:55:05.001Z</time></trkpt><trkpt lat="46.07624109816343" lon="12.59706378242435"><ele>165.0</ele><time>2026-04-25T08:55:10.001Z</time></trkpt><trkpt lat="46.07618075075861" lon="12.597111770113212"><ele>165.0</ele><time>2026-04-25T08:55:15.001Z</time></trkpt><trkpt lat="46.076133147184926" lon="12.597177724647745"><ele>165.00000000000003</ele><time>2026-04-25T08:55:20.001Z</time></trkpt><trkpt lat="46.07608895787496" lon="12.597242933880826"><ele>165.0</ele><time>2026-04-25T08:55:25.001Z</time></trkpt><trkpt lat="46.076063223678574" lon="12.597327023143386"><ele>164.71428571428572</ele><time>2026-04-25T08:55:30Z</time></trkpt><trkpt lat="46.07607270362831" lon="12.597420900362602"><ele>164.42857142857144</ele><time>2026-04-25T08:55:35Z</time></trkpt><trkpt lat="46.076146910594716" lon="12.597412492611864"><ele>164.14285714285717</ele><time>2026-04-25T08:55:39Z</time></trkpt><trkpt lat="46.07620949292091" lon="12.597376665588193"><ele>163.85714285714286</ele><time>2026-04-25T08:55:43Z</time></trkpt><trkpt lat="46.07626496528109" lon="12.597330964820152"><ele>163.57142857142856</ele><time>2026-04-25T08:55:47Z</time></trkpt><trkpt lat="46.07633264294235" lon="12.597276968103255"><ele>163.2857142857143</ele><time>2026-04-25T08:55:52Z</time></trkpt><trkpt lat="46.07638428889715" lon="12.597199983119431"><ele>163.0</ele><time>2026-04-25T08:55:57Z</time></trkpt><trkpt lat="46.07644196250073" lon="12.597128153311017"><ele>163.0</ele><time>2026-04-25T08:56:02Z</time></trkpt><trkpt lat="46.07649879178423" lon="12.597080374031755"><ele>163.0</ele><time>2026-04-25T08:56:07Z</time></trkpt><trkpt lat="46.076563823872725" lon="12.597042587772105"><ele>163.0</ele><time>2026-04-25T08:56:13Z</time></trkpt><trkpt lat="46.07657969055248" lon="12.597148164962165"><ele>163.0</ele><time>2026-04-25T08:56:18Z</time></trkpt><trkpt lat="46.07657927352371" lon="12.597254243776243"><ele>163.0</ele><time>2026-04-25T08:56:23Z</time></trkpt><trkpt lat="46.076579556078386" lon="12.597363476429585"><ele>163.0</ele><time>2026-04-25T08:56:28Z</time></trkpt><trkpt lat="46.0765799143716" lon="12.597468399281054"><ele>163.0</ele><time>2026-04-25T08:56:33Z</time></trkpt><trkpt lat="46.07656908776551" lon="12.597560543991875"><ele>163.0</ele><time>2026-04-25T08:56:38Z</time></trkpt><trkpt lat="46.076552811985906" lon="12.597652788190427"><ele>163.0</ele><time>2026-04-25T08:56:43.001Z</time></trkpt><trkpt lat="46.07648395213498" lon="12.597681196204292"><ele>163.0</ele><time>2026-04-25T08:56:49.001Z</time></trkpt><trkpt lat="46.07642020770777" lon="12.597710334940457"><ele>163.0</ele><time>2026-04-25T08:57:03.001Z</time></trkpt><trkpt lat="46.07634884942122" lon="12.597691858483065"><ele>163.0</ele><time>2026-04-25T08:57:10.001Z</time></trkpt><trkpt lat="46.076282586952175" lon="12.597660586060924"><ele>163.0</ele><time>2026-04-25T08:57:16.001Z</time></trkpt></trkseg></trk></gpx>